AirNav   BOSE A20 Aviation Headset
 
 1530 users online  

KJRB Downtown Manhattan/Wall Street Heliport
New York, New York, USA

GOING TO NEW YORK?


FAA INFORMATION EFFECTIVE 26 APRIL 2018

Location

FAA Identifier: JRB
Lat/Long: 40-42-04.3690N / 074-00-32.5020W
40-42.072817N / 074-00.541700W
40.7012136 / -74.0090283
(estimated)
Elevation: 7 ft. / 2 m (estimated)
Variation: 13W (2010)
From city: 3 miles SE of NEW YORK, NY
Time zone: UTC -4 (UTC -5 during Standard Time)
Zip code: 10004

Heliport Operations

Heliport use: Open to the public
Activation date: 11/1972
Control tower: no
ARTCC: NEW YORK CENTER
FSS: NEW YORK FLIGHT SERVICE STATION
NOTAMs facility: ISP (NOTAM-D service available)
Attendance: SAT 0700-1900, ALL SUN 0700-1700, ALL MON-FRI 0700-2200
ATTENDANCE EARLY HRS HOL & WKND SKEDS REQUIRES 24 HRS NOTICE CALL 212-248-7240.
Wind indicator: lighted
Segmented circle: no
Lights: SS-SR
Landing fee: yes

Heliport Communications

CTAF/UNICOM: 123.05
WX AWOS-3PT: 128.175 (212-425-1534)
NEW YORK APPROACH: 120.8
NEW YORK DEPARTURE: 120.8
WX ASOS at EWR (7 nm W): PHONE 973-621-2892
WX ASOS at LGA (8 nm NE): PHONE 718-672-6317
WX ASOS at TEB (9 nm N): PHONE 201-393-0855
WX ASOS at JFK (11 nm E): PHONE 718-656-0956
WX AWOS-3 at LDJ (12 nm SW): 124.025 (908-862-7383)
WX ASOS at CDW (16 nm NW): PHONE 973-575-4417
WX AWOS-3 at MMU (19 nm W): PHONE 973-290-0135

Nearby radio navigation aids

VOR radial/distance  VOR name  Freq  Var
CRIr327/7.5CANARSIE VOR/DME112.3011W
LGAr244/8.1LA GUARDIA VOR/DME113.1012W
TEBr176/9.2TETERBORO VOR/DME108.4011W
JFKr303/11.6KENNEDY VOR/DME115.9012W
COLr027/24.4COLTS NECK VOR/DME115.4011W
DPKr272/32.5DEER PARK VOR/DME117.7012W
SAXr143/32.6SPARTA VORTAC115.7011W
SBJr088/34.1SOLBERG VOR/DME112.9010W
RBVr047/37.3ROBBINSVILLE VORTAC113.8010W
BWZr110/37.4BROADWAY VOR/DME114.2011W
CMKr221/39.8CARMEL VOR/DME116.6012W

 
NDB name  Hdg/Dist  Freq  Var  ID
TORBY150/8.421412WTE - .
BRIDGE336/9.841412WOGY --- --. -.--
CHATHAM110/19.325413WCAT -.-. .- -
BABYLON287/28.527514WBBN -... -... -.

Heliport Services

Fuel available: A
Airframe service: NONE
Powerplant service: NONE
Bottled oxygen: NONE
Bulk oxygen: NONE

Runway Information

Helipad H1

Dimensions: 62 x 62 ft. / 19 x 19 m
Surface: concrete, in good condition
Weight bearing capacity: 
Single wheel: 50.0
Runway edge lights: PERI
Traffic pattern: leftleft
Markings: basic, in good condition

Heliport Ownership and Management from official FAA records

Ownership: Publicly-owned
Owner: ECONOMIC DEVELOPMENT CORP
110 WILLIAM ST
NEW YORK, NY 10038
Phone 212-248-7240
Manager: MR. BRIAN TOLBERT
PIER 6 EAST RIVER
NEW YORK, NY 10004
Phone 212-248-7240
SAKER AVIATION

Heliport Operational Statistics

Aircraft operations: avg 159/day *
68% air taxi
27% transient general aviation
5% military
* for 12-month period ending 15 September 2015

Additional Remarks

NO FLTS OR APCHS OVER FDR DRIVE; TWO-WAY RDO RQRD.
BIRDS ON & INVOF HELIPORT.
BOATS MAY NAVIGATE IN WATER ALONG HELIPORT PIER.
13 HELICOPTER PARKING SPACES WITH ADDITIONAL TRANSIENT POSITIONS AVBL. FIRE STAND PIPES ON SITE.

Instrument Procedures

NOTE: All procedures below are presented as PDF files. If you need a reader for these files, you should download the free Adobe Reader.

NOT FOR NAVIGATION. Please procure official charts for flight.
FAA instrument procedures published for use from 26 April 2018 at 901Z to 24 May 2018 at 0900Z.

NOTE: Special Take-Off Minimums/Departure Procedures apply   download (592KB)

Other nearby airports with instrument procedures:

6N5 - East 34th Street Heliport (3 nm NE)
KJRA - West 30th St Heliport (3 nm N)
KEWR - Newark Liberty International Airport (7 nm W)
KLGA - LaGuardia Airport (8 nm NE)
KTEB - Teterboro Airport (9 nm N)
KJFK - John F Kennedy International Airport (11 nm E)
KLDJ - Linden Airport (12 nm SW)
KCDW - Essex County Airport (16 nm NW)
KMMU - Morristown Municipal Airport (19 nm W)
 
Loc | Ops | Rwys | IFR | FBO | Links
Com | Nav | Svcs | Stats | Notes

AirNav Hotels Sweepstakes
 
Area around KJRB (Downtown Manhattan/Wall Street Heliport)
 
Road maps at: MapQuest Bing Google
 
Aerial photo
WARNING: Photo may not be current or correct
Aerial photo of KJRB (Downtown Manhattan/Wall Street Heliport)
Photo by New York Jet Charter Flights by GiveJet jetcharterrewards.com/newyork.htm
Photo taken 01-May-2014
looking northeast.

Do you have a better or more recent aerial photo of Downtown Manhattan/Wall Street Heliport that you would like to share? If so, please send us your photo.

 
Sectional chart

 
Airport distance calculator
Flying to Downtown Manhattan/Wall Street Heliport? Find the distance to fly.

From to KJRB

Sunrise and sunset
Times for 21-May-2018
 Local
(UTC-4)
 Zulu
(UTC)
Morning civil twilight05:0309:03
Sunrise05:3509:35
Sunset20:1000:10
Evening civil twilight20:4200:42

Current date and time
Zulu (UTC)  21-May-2018 20:59:34
Local (UTC-4)  21-May-2018 16:59:34
 
METAR
KJRB 212055Z VRB06KT 10SM CLR 23/09 A3015 RMK AO2 SLP301 57010 PWINO FZRANO TSNO RVRNO
KNYC 
5nm N 
212051Z AUTO 00000KT 10SM CLR 23/08 A3016 RMK AO2 SLP203 T02280083 56013
KEWR 
7nm W 
212051Z 13008KT 10SM SCT250 24/08 A3012 RMK AO2 SLP200 T02440078 56014
KLGA 
8nm NE 
212051Z 17012KT 10SM SCT250 23/08 A3013 RMK AO2 SLP202 T02330083 56013
KTEB 
10nm N 
212051Z 15009KT 10SM CLR 24/07 A3011 RMK AO2 RAB30E45 SLP196 P0000 60000 T02440072 56014
KJFK 
12nm E 
212051Z 18012KT 10SM BKN250 21/12 A3016 RMK AO2 SLP211 T02060117 58012
KLDJ 
12nm SW 
212055Z AUTO 15010KT 10SM CLR 25/08 A3013 RMK AO2 T02540075
KCDW 
17nm NW 
212053Z AUTO 00000KT 10SM CLR 26/07 A3012 RMK AO2 SLP202 T02610067 56017
KMMU 
19nm W 
211945Z 07004KT 15SM FEW120 26/09 A3013
TAF
KEWR 
7nm W 
211947Z 2120/2224 15008KT P6SM SCT250 FM220100 18006KT P6SM SCT250 FM220400 VRB03KT P6SM SCT100 BKN150 BKN250 FM221300 16006KT P6SM VCSH SCT025 BKN060 OVC100 FM221700 14005KT 5SM -SHRA BR BKN020 OVC050
KLGA 
8nm NE 
211947Z 2120/2224 19009KT P6SM SCT250 FM220200 19005KT P6SM SCT250 FM220500 VRB04KT P6SM SCT100 BKN250 FM221300 12008KT P6SM VCSH SCT030 BKN060 OVC100 FM221800 12005KT 5SM -SHRA BR BKN020 OVC040
KTEB 
10nm N 
211947Z 2120/2224 16006KT P6SM SCT250 FM220100 VRB03KT P6SM SCT250 FM220400 00000KT P6SM SCT100 BKN150 BKN250 FM221300 15005KT P6SM VCSH SCT020 BKN060 OVC100 FM221700 14007KT 5SM -SHRA BR BKN020 OVC050
KJFK 
12nm E 
211947Z 2120/2224 18011KT P6SM SCT250 FM220200 20006KT P6SM SCT250 FM220500 16005KT P6SM SCT100 BKN250 FM221300 14008KT P6SM VCSH SCT025 BKN060 OVC090 FM221800 12007KT 5SM -SHRA BR BKN020 OVC040
NOTAMs
Click for the latest NOTAMs
NOTAMs are issued by the DoD/FAA and will open in a separate window not controlled by AirNav.

 

 
 

FBO, Fuel Providers, and Aircraft Ground Support

  
 Business Name 
 
 Contact 
 
 Services / Description 
 
Fuel Prices
 
Comments
  
 Saker Aviation Services, Inc.
212-248-7240
212-248-7241
[web site]
[email]

Like us on facebook Follow us on twitter
Airport management, Aviation fuel, Aircraft parking (ramp or tiedown), Passenger terminal and lounge, Aerial tours / aerial sightseeing, Aircraft charters, ...

More info about Saker Aviation Services, Inc.
Avfuel
Jet A
FS $7.89 
 Updated 14-May-2018
 
   write
FS=Full service
Update Fuel Prices
 

Would you like to see your business listed on this page?

 If your business provides an interesting product or service to pilots, flight crews, aircraft, or users of the Downtown Manhattan/Wall Street Heliport, you should consider listing it here.  To start the listing process, click on the button below
 
Add a business
 

Other Pages about Downtown Manhattan/Wall Street Heliport

www.panynj.gov/...
www.downtownmanhattanheliport.com
 
Update a link
 
Copyright © AirNav, LLC. All rights reserved. Privacy Policy  Contact